Pear Ridge, Texas
Current Conditions -  °F | °C
As of 5:53 AM on Tuesday 27 Jan 2015 (Local Time) from KBPT Reporting Station
Clear Clear  
Wind Chill: 44°   Ceiling: Unl
Heat Index: 44°   Visibility: 10mi
Dew Point: 42°   Wind: 3mph
Humidity: 93%   Direction: 250°WSW
Pressure: 30.09"   Gusts: NA
Location:  29.7569°N, 94.1898°W
Report Text: KBPT 271153Z AUTO 25003KT 10SM CLR 07/06 A3009 RMK AO2 SLP190 T00670056 10089 20061 55004
Loading
Personal Weather Stations






























Interactive Weather Map New forecast layout! Learn more

10-Day Weather Forecast

Advertisements
Track Severe Weather on mobile